sensor_id;sensor_type;location;lat;lon;timestamp;P1;durP1;ratioP1;P2;durP2;ratioP2
41709;SDS011;59402;48.396;-4.472;2023-04-05T00:00:36;14.10;;;8.75;;
41709;SDS011;59402;48.396;-4.472;2023-04-05T00:03:02;16.30;;;8.95;;
41709;SDS011;59402;48.396;-4.472;2023-04-05T00:05:28;13.23;;;9.20;;
41709;SDS011;59402;48.396;-4.472;2023-04-05T00:07:57;14.30;;;8.93;;
41709;SDS011;59402;48.396;-4.472;2023-04-05T00:10:25;13.32;;;8.30;;
41709;SDS011;59402;48.396;-4.472;2023-04-05T00:12:51;14.47;;;8.80;;
41709;SDS011;59402;48.396;-4.472;2023-04-05T00:15:17;17.58;;;8.52;;
41709;SDS011;59402;48.396;-4.472;2023-04-05T00:17:43;13.40;;;8.27;;
41709;SDS011;59402;48.396;-4.472;2023-04-05T00:20:10;15.32;;;8.05;;
41709;SDS011;59402;48.396;-4.472;2023-04-05T00:22:36;15.40;;;8.40;;
41709;SDS011;59402;48.396;-4.472;2023-04-05T00:25:05;13.43;;;7.80;;
41709;SDS011;59402;48.396;-4.472;2023-04-05T00:27:31;13.20;;;7.65;;
41709;SDS011;59402;48.396;-4.472;2023-04-05T00:29:57;12.65;;;7.90;;
41709;SDS011;59402;48.396;-4.472;2023-04-05T00:32:23;9.85;;;7.32;;
41709;SDS011;59402;48.396;-4.472;2023-04-05T00:34:48;13.93;;;7.57;;
41709;SDS011;59402;48.396;-4.472;2023-04-05T00:37:14;14.68;;;8.13;;
41709;SDS011;59402;48.396;-4.472;2023-04-05T00:39:40;12.32;;;8.35;;
41709;SDS011;59402;48.396;-4.472;2023-04-05T00:42:06;14.88;;;7.53;;
41709;SDS011;59402;48.396;-4.472;2023-04-05T00:44:33;15.85;;;8.68;;
41709;SDS011;59402;48.396;-4.472;2023-04-05T00:47:06;15.35;;;8.52;;
41709;SDS011;59402;48.396;-4.472;2023-04-05T00:49:32;16.30;;;8.48;;
41709;SDS011;59402;48.396;-4.472;2023-04-05T00:51:59;12.05;;;8.10;;
41709;SDS011;59402;48.396;-4.472;2023-04-05T00:54:25;13.18;;;8.20;;
41709;SDS011;59402;48.396;-4.472;2023-04-05T00:56:55;11.60;;;7.60;;
41709;SDS011;59402;48.396;-4.472;2023-04-05T00:59:21;11.27;;;8.15;;
41709;SDS011;59402;48.396;-4.472;2023-04-05T01:01:49;12.30;;;7.85;;
41709;SDS011;59402;48.396;-4.472;2023-04-05T01:04:21;11.27;;;7.80;;
41709;SDS011;59402;48.396;-4.472;2023-04-05T01:09:33;15.25;;;8.07;;
41709;SDS011;59402;48.396;-4.472;2023-04-05T01:12:05;14.18;;;8.73;;
41709;SDS011;59402;48.396;-4.472;2023-04-05T01:14:49;13.23;;;8.20;;
41709;SDS011;59402;48.396;-4.472;2023-04-05T01:17:16;14.07;;;8.55;;
41709;SDS011;59402;48.396;-4.472;2023-04-05T01:19:49;13.50;;;8.43;;
41709;SDS011;59402;48.396;-4.472;2023-04-05T01:36:35;14.48;;;9.30;;
41709;SDS011;59402;48.396;-4.472;2023-04-05T01:39:05;14.77;;;8.77;;
41709;SDS011;59402;48.396;-4.472;2023-04-05T01:41:34;14.75;;;9.27;;
41709;SDS011;59402;48.396;-4.472;2023-04-05T01:44:00;13.98;;;9.60;;
41709;SDS011;59402;48.396;-4.472;2023-04-05T01:46:26;15.50;;;10.25;;
41709;SDS011;59402;48.396;-4.472;2023-04-05T01:48:52;14.65;;;9.85;;
41709;SDS011;59402;48.396;-4.472;2023-04-05T01:51:18;14.60;;;9.90;;
41709;SDS011;59402;48.396;-4.472;2023-04-05T01:53:45;14.63;;;9.30;;
41709;SDS011;59402;48.396;-4.472;2023-04-05T01:56:12;15.93;;;9.93;;
41709;SDS011;59402;48.396;-4.472;2023-04-05T01:58:38;14.68;;;9.35;;
41709;SDS011;59402;48.396;-4.472;2023-04-05T02:01:04;14.45;;;9.55;;
41709;SDS011;59402;48.396;-4.472;2023-04-05T02:03:30;15.10;;;8.80;;
41709;SDS011;59402;48.396;-4.472;2023-04-05T02:05:56;13.88;;;9.25;;
41709;SDS011;59402;48.396;-4.472;2023-04-05T02:08:22;13.70;;;9.38;;
41709;SDS011;59402;48.396;-4.472;2023-04-05T02:10:48;16.40;;;9.65;;
41709;SDS011;59402;48.396;-4.472;2023-04-05T02:13:13;13.27;;;9.05;;
41709;SDS011;59402;48.396;-4.472;2023-04-05T02:15:39;15.55;;;9.65;;
41709;SDS011;59402;48.396;-4.472;2023-04-05T02:18:05;15.40;;;9.52;;
41709;SDS011;59402;48.396;-4.472;2023-04-05T02:20:32;16.15;;;10.20;;
41709;SDS011;59402;48.396;-4.472;2023-04-05T02:22:58;16.85;;;9.88;;
41709;SDS011;59402;48.396;-4.472;2023-04-05T02:25:27;14.15;;;9.43;;
41709;SDS011;59402;48.396;-4.472;2023-04-05T02:27:52;16.08;;;10.00;;
41709;SDS011;59402;48.396;-4.472;2023-04-05T02:30:19;15.25;;;9.57;;
41709;SDS011;59402;48.396;-4.472;2023-04-05T02:32:45;14.15;;;10.77;;
41709;SDS011;59402;48.396;-4.472;2023-04-05T02:35:11;17.75;;;10.23;;
41709;SDS011;59402;48.396;-4.472;2023-04-05T02:37:37;16.73;;;10.55;;
41709;SDS011;59402;48.396;-4.472;2023-04-05T02:40:06;17.48;;;11.07;;
41709;SDS011;59402;48.396;-4.472;2023-04-05T02:42:36;15.10;;;10.50;;
41709;SDS011;59402;48.396;-4.472;2023-04-05T02:45:02;18.52;;;11.40;;
41709;SDS011;59402;48.396;-4.472;2023-04-05T02:47:29;17.15;;;10.25;;
41709;SDS011;59402;48.396;-4.472;2023-04-05T02:49:57;16.92;;;11.68;;
41709;SDS011;59402;48.396;-4.472;2023-04-05T02:52:26;15.05;;;10.50;;
41709;SDS011;59402;48.396;-4.472;2023-04-05T02:54:52;19.83;;;11.80;;
41709;SDS011;59402;48.396;-4.472;2023-04-05T02:57:23;18.65;;;12.48;;
41709;SDS011;59402;48.396;-4.472;2023-04-05T02:59:56;16.70;;;11.95;;
41709;SDS011;59402;48.396;-4.472;2023-04-05T03:02:24;17.90;;;12.70;;
41709;SDS011;59402;48.396;-4.472;2023-04-05T03:04:53;19.40;;;12.68;;
41709;SDS011;59402;48.396;-4.472;2023-04-05T03:07:19;17.23;;;11.93;;
41709;SDS011;59402;48.396;-4.472;2023-04-05T03:09:46;17.88;;;11.63;;
41709;SDS011;59402;48.396;-4.472;2023-04-05T03:12:12;16.52;;;11.55;;
41709;SDS011;59402;48.396;-4.472;2023-04-05T03:14:41;17.75;;;12.50;;
41709;SDS011;59402;48.396;-4.472;2023-04-05T03:17:10;17.65;;;11.85;;
41709;SDS011;59402;48.396;-4.472;2023-04-05T03:19:40;16.85;;;12.55;;
41709;SDS011;59402;48.396;-4.472;2023-04-05T03:22:24;19.98;;;12.75;;
41709;SDS011;59402;48.396;-4.472;2023-04-05T03:24:53;17.67;;;12.40;;
41709;SDS011;59402;48.396;-4.472;2023-04-05T03:27:19;18.23;;;11.82;;
41709;SDS011;59402;48.396;-4.472;2023-04-05T03:30:08;19.48;;;11.50;;
41709;SDS011;59402;48.396;-4.472;2023-04-05T03:32:39;18.23;;;12.43;;
41709;SDS011;59402;48.396;-4.472;2023-04-05T03:35:13;15.68;;;11.60;;
41709;SDS011;59402;48.396;-4.472;2023-04-05T03:37:44;19.23;;;13.13;;
41709;SDS011;59402;48.396;-4.472;2023-04-05T03:40:11;19.27;;;12.40;;
41709;SDS011;59402;48.396;-4.472;2023-04-05T03:42:37;17.83;;;12.77;;
41709;SDS011;59402;48.396;-4.472;2023-04-05T03:45:03;19.45;;;11.88;;
41709;SDS011;59402;48.396;-4.472;2023-04-05T03:47:30;18.13;;;12.35;;
41709;SDS011;59402;48.396;-4.472;2023-04-05T03:50:00;17.83;;;13.27;;
41709;SDS011;59402;48.396;-4.472;2023-04-05T03:52:26;18.40;;;12.03;;
41709;SDS011;59402;48.396;-4.472;2023-04-05T03:54:52;16.42;;;12.18;;
41709;SDS011;59402;48.396;-4.472;2023-04-05T03:57:21;18.30;;;12.20;;
41709;SDS011;59402;48.396;-4.472;2023-04-05T03:59:49;16.67;;;10.82;;
41709;SDS011;59402;48.396;-4.472;2023-04-05T04:02:16;14.95;;;11.00;;
41709;SDS011;59402;48.396;-4.472;2023-04-05T04:04:41;15.43;;;11.02;;
41709;SDS011;59402;48.396;-4.472;2023-04-05T04:07:07;19.55;;;10.68;;
41709;SDS011;59402;48.396;-4.472;2023-04-05T04:09:33;15.38;;;10.60;;
41709;SDS011;59402;48.396;-4.472;2023-04-05T04:12:05;16.15;;;10.13;;
41709;SDS011;59402;48.396;-4.472;2023-04-05T04:14:33;15.57;;;9.98;;
41709;SDS011;59402;48.396;-4.472;2023-04-05T04:17:24;15.60;;;10.35;;
41709;SDS011;59402;48.396;-4.472;2023-04-05T04:20:12;14.90;;;9.63;;
41709;SDS011;59402;48.396;-4.472;2023-04-05T04:23:05;18.17;;;10.50;;
41709;SDS011;59402;48.396;-4.472;2023-04-05T04:25:52;14.90;;;10.23;;
41709;SDS011;59402;48.396;-4.472;2023-04-05T04:28:35;14.95;;;9.95;;
41709;SDS011;59402;48.396;-4.472;2023-04-05T04:31:20;12.35;;;9.10;;
41709;SDS011;59402;48.396;-4.472;2023-04-05T04:34:04;16.77;;;9.55;;
41709;SDS011;59402;48.396;-4.472;2023-04-05T04:36:57;13.48;;;9.88;;
41709;SDS011;59402;48.396;-4.472;2023-04-05T04:39:59;14.07;;;10.60;;
41709;SDS011;59402;48.396;-4.472;2023-04-05T04:42:49;13.68;;;9.57;;
41709;SDS011;59402;48.396;-4.472;2023-04-05T04:45:35;18.55;;;10.52;;
41709;SDS011;59402;48.396;-4.472;2023-04-05T04:48:17;16.02;;;10.75;;
41709;SDS011;59402;48.396;-4.472;2023-04-05T04:50:50;17.05;;;10.25;;
41709;SDS011;59402;48.396;-4.472;2023-04-05T04:53:17;15.27;;;9.73;;
41709;SDS011;59402;48.396;-4.472;2023-04-05T04:55:43;15.38;;;9.40;;
41709;SDS011;59402;48.396;-4.472;2023-04-05T04:58:09;19.42;;;9.85;;
41709;SDS011;59402;48.396;-4.472;2023-04-05T05:00:40;18.83;;;9.32;;
41709;SDS011;59402;48.396;-4.472;2023-04-05T05:03:08;14.40;;;9.60;;
41709;SDS011;59402;48.396;-4.472;2023-04-05T05:05:48;16.80;;;10.40;;
41709;SDS011;59402;48.396;-4.472;2023-04-05T05:08:18;17.17;;;11.18;;
41709;SDS011;59402;48.396;-4.472;2023-04-05T05:10:43;18.35;;;10.38;;
41709;SDS011;59402;48.396;-4.472;2023-04-05T05:13:09;14.70;;;10.38;;
41709;SDS011;59402;48.396;-4.472;2023-04-05T05:15:35;14.15;;;9.80;;
41709;SDS011;59402;48.396;-4.472;2023-04-05T05:18:02;13.50;;;9.68;;
41709;SDS011;59402;48.396;-4.472;2023-04-05T05:20:29;15.10;;;10.53;;
41709;SDS011;59402;48.396;-4.472;2023-04-05T05:22:55;13.52;;;9.20;;
41709;SDS011;59402;48.396;-4.472;2023-04-05T05:25:20;16.45;;;10.50;;
41709;SDS011;59402;48.396;-4.472;2023-04-05T05:27:47;12.20;;;8.90;;
41709;SDS011;59402;48.396;-4.472;2023-04-05T05:30:14;14.40;;;8.95;;
41709;SDS011;59402;48.396;-4.472;2023-04-05T05:32:40;16.38;;;9.70;;
41709;SDS011;59402;48.396;-4.472;2023-04-05T05:35:05;15.48;;;8.75;;
41709;SDS011;59402;48.396;-4.472;2023-04-05T05:37:32;14.15;;;8.93;;
41709;SDS011;59402;48.396;-4.472;2023-04-05T05:39:58;15.75;;;9.13;;
41709;SDS011;59402;48.396;-4.472;2023-04-05T05:42:24;14.48;;;9.02;;
41709;SDS011;59402;48.396;-4.472;2023-04-05T05:44:51;12.60;;;8.50;;
41709;SDS011;59402;48.396;-4.472;2023-04-05T05:47:17;13.55;;;8.60;;
41709;SDS011;59402;48.396;-4.472;2023-04-05T05:49:43;14.15;;;8.90;;
41709;SDS011;59402;48.396;-4.472;2023-04-05T05:52:09;15.10;;;8.45;;
41709;SDS011;59402;48.396;-4.472;2023-04-05T05:54:35;17.92;;;8.55;;
41709;SDS011;59402;48.396;-4.472;2023-04-05T05:57:00;11.77;;;8.10;;
41709;SDS011;59402;48.396;-4.472;2023-04-05T05:59:26;14.18;;;8.23;;
41709;SDS011;59402;48.396;-4.472;2023-04-05T06:01:53;14.20;;;8.20;;
41709;SDS011;59402;48.396;-4.472;2023-04-05T06:04:19;17.20;;;9.00;;
41709;SDS011;59402;48.396;-4.472;2023-04-05T06:06:45;11.80;;;8.05;;
41709;SDS011;59402;48.396;-4.472;2023-04-05T06:09:12;14.82;;;8.57;;
41709;SDS011;59402;48.396;-4.472;2023-04-05T06:11:39;14.98;;;8.43;;
41709;SDS011;59402;48.396;-4.472;2023-04-05T06:14:05;14.82;;;8.77;;
41709;SDS011;59402;48.396;-4.472;2023-04-05T06:16:30;14.43;;;9.10;;
41709;SDS011;59402;48.396;-4.472;2023-04-05T06:18:56;15.43;;;8.68;;
41709;SDS011;59402;48.396;-4.472;2023-04-05T06:21:22;12.65;;;8.15;;
41709;SDS011;59402;48.396;-4.472;2023-04-05T06:23:48;16.52;;;9.13;;
41709;SDS011;59402;48.396;-4.472;2023-04-05T06:26:17;14.13;;;9.27;;
41709;SDS011;59402;48.396;-4.472;2023-04-05T06:28:45;17.27;;;9.40;;
41709;SDS011;59402;48.396;-4.472;2023-04-05T06:31:12;13.18;;;8.73;;
41709;SDS011;59402;48.396;-4.472;2023-04-05T06:33:40;17.23;;;9.98;;
41709;SDS011;59402;48.396;-4.472;2023-04-05T06:36:06;14.27;;;9.65;;
41709;SDS011;59402;48.396;-4.472;2023-04-05T06:38:32;15.45;;;10.00;;
41709;SDS011;59402;48.396;-4.472;2023-04-05T06:40:58;18.25;;;10.15;;
41709;SDS011;59402;48.396;-4.472;2023-04-05T06:43:24;15.30;;;9.77;;
41709;SDS011;59402;48.396;-4.472;2023-04-05T06:45:50;15.30;;;9.95;;
41709;SDS011;59402;48.396;-4.472;2023-04-05T06:48:15;16.60;;;9.98;;
41709;SDS011;59402;48.396;-4.472;2023-04-05T06:50:41;17.25;;;11.10;;
41709;SDS011;59402;48.396;-4.472;2023-04-05T06:53:07;16.25;;;11.52;;
41709;SDS011;59402;48.396;-4.472;2023-04-05T06:55:33;16.92;;;11.25;;
41709;SDS011;59402;48.396;-4.472;2023-04-05T06:57:58;14.63;;;10.65;;
41709;SDS011;59402;48.396;-4.472;2023-04-05T07:00:24;17.70;;;11.05;;
41709;SDS011;59402;48.396;-4.472;2023-04-05T07:02:50;19.13;;;10.48;;
41709;SDS011;59402;48.396;-4.472;2023-04-05T07:05:15;15.65;;;9.88;;
41709;SDS011;59402;48.396;-4.472;2023-04-05T07:07:41;13.70;;;9.98;;
41709;SDS011;59402;48.396;-4.472;2023-04-05T07:12:35;24.40;;;11.32;;
41709;SDS011;59402;48.396;-4.472;2023-04-05T07:15:01;17.95;;;10.13;;
41709;SDS011;59402;48.396;-4.472;2023-04-05T07:17:27;18.00;;;10.73;;
41709;SDS011;59402;48.396;-4.472;2023-04-05T07:19:53;15.55;;;9.68;;
41709;SDS011;59402;48.396;-4.472;2023-04-05T07:22:19;14.43;;;9.75;;
41709;SDS011;59402;48.396;-4.472;2023-04-05T07:24:45;17.58;;;10.77;;
41709;SDS011;59402;48.396;-4.472;2023-04-05T07:27:11;15.20;;;9.48;;
41709;SDS011;59402;48.396;-4.472;2023-04-05T07:29:37;16.20;;;10.10;;
41709;SDS011;59402;48.396;-4.472;2023-04-05T07:32:05;17.25;;;10.70;;
41709;SDS011;59402;48.396;-4.472;2023-04-05T07:34:32;18.70;;;10.50;;
41709;SDS011;59402;48.396;-4.472;2023-04-05T07:36:58;18.00;;;10.90;;
41709;SDS011;59402;48.396;-4.472;2023-04-05T07:39:24;16.88;;;9.57;;
41709;SDS011;59402;48.396;-4.472;2023-04-05T07:41:50;14.75;;;9.70;;
41709;SDS011;59402;48.396;-4.472;2023-04-05T07:44:16;15.98;;;9.57;;
41709;SDS011;59402;48.396;-4.472;2023-04-05T07:46:42;22.52;;;10.35;;
41709;SDS011;59402;48.396;-4.472;2023-04-05T07:49:12;23.10;;;11.27;;
41709;SDS011;59402;48.396;-4.472;2023-04-05T07:51:37;21.63;;;9.75;;
41709;SDS011;59402;48.396;-4.472;2023-04-05T07:54:03;18.67;;;10.15;;
41709;SDS011;59402;48.396;-4.472;2023-04-05T07:56:30;19.05;;;10.48;;
41709;SDS011;59402;48.396;-4.472;2023-04-05T07:58:57;22.73;;;10.40;;
41709;SDS011;59402;48.396;-4.472;2023-04-05T08:01:23;23.10;;;11.05;;
41709;SDS011;59402;48.396;-4.472;2023-04-05T08:03:54;18.63;;;9.60;;
41709;SDS011;59402;48.396;-4.472;2023-04-05T08:06:21;22.25;;;11.10;;
41709;SDS011;59402;48.396;-4.472;2023-04-05T08:08:48;16.95;;;10.13;;
41709;SDS011;59402;48.396;-4.472;2023-04-05T08:11:15;18.33;;;10.35;;
41709;SDS011;59402;48.396;-4.472;2023-04-05T08:13:40;19.60;;;10.88;;
41709;SDS011;59402;48.396;-4.472;2023-04-05T08:16:10;19.77;;;9.90;;
41709;SDS011;59402;48.396;-4.472;2023-04-05T08:18:36;20.90;;;10.20;;
41709;SDS011;59402;48.396;-4.472;2023-04-05T08:21:02;18.90;;;10.45;;
41709;SDS011;59402;48.396;-4.472;2023-04-05T08:23:27;19.75;;;10.77;;
41709;SDS011;59402;48.396;-4.472;2023-04-05T08:25:54;18.73;;;9.93;;
41709;SDS011;59402;48.396;-4.472;2023-04-05T08:28:20;19.30;;;10.35;;
41709;SDS011;59402;48.396;-4.472;2023-04-05T08:30:46;16.38;;;9.80;;
41709;SDS011;59402;48.396;-4.472;2023-04-05T08:33:12;21.38;;;10.90;;
41709;SDS011;59402;48.396;-4.472;2023-04-05T08:35:38;19.75;;;9.88;;
41709;SDS011;59402;48.396;-4.472;2023-04-05T08:38:05;19.25;;;9.77;;
41709;SDS011;59402;48.396;-4.472;2023-04-05T08:45:49;18.77;;;9.57;;
41709;SDS011;59402;48.396;-4.472;2023-04-05T08:48:16;19.90;;;10.48;;
41709;SDS011;59402;48.396;-4.472;2023-04-05T08:50:49;22.85;;;10.32;;
41709;SDS011;59402;48.396;-4.472;2023-04-05T08:53:15;18.50;;;11.15;;
41709;SDS011;59402;48.396;-4.472;2023-04-05T08:55:42;18.55;;;10.52;;
41709;SDS011;59402;48.396;-4.472;2023-04-05T08:58:12;15.60;;;9.95;;
41709;SDS011;59402;48.396;-4.472;2023-04-05T09:00:39;20.67;;;10.65;;
41709;SDS011;59402;48.396;-4.472;2023-04-05T09:03:05;17.98;;;9.52;;
41709;SDS011;59402;48.396;-4.472;2023-04-05T09:05:31;17.33;;;9.63;;
41709;SDS011;59402;48.396;-4.472;2023-04-05T09:07:58;23.88;;;9.80;;
41709;SDS011;59402;48.396;-4.472;2023-04-05T09:10:23;14.98;;;9.25;;
41709;SDS011;59402;48.396;-4.472;2023-04-05T09:15:17;21.52;;;10.20;;
41709;SDS011;59402;48.396;-4.472;2023-04-05T09:17:45;19.73;;;9.10;;
41709;SDS011;59402;48.396;-4.472;2023-04-05T09:20:11;13.27;;;8.48;;
41709;SDS011;59402;48.396;-4.472;2023-04-05T09:22:43;17.30;;;9.88;;
41709;SDS011;59402;48.396;-4.472;2023-04-05T09:25:10;20.88;;;10.45;;
41709;SDS011;59402;48.396;-4.472;2023-04-05T09:27:55;23.55;;;10.73;;
41709;SDS011;59402;48.396;-4.472;2023-04-05T09:30:21;20.98;;;9.85;;
41709;SDS011;59402;48.396;-4.472;2023-04-05T09:32:48;19.43;;;9.97;;
41709;SDS011;59402;48.396;-4.472;2023-04-05T09:35:17;24.15;;;9.85;;
41709;SDS011;59402;48.396;-4.472;2023-04-05T09:37:50;22.65;;;10.90;;
41709;SDS011;59402;48.396;-4.472;2023-04-05T09:40:22;24.48;;;11.15;;
41709;SDS011;59402;48.396;-4.472;2023-04-05T09:42:49;20.10;;;11.30;;
41709;SDS011;59402;48.396;-4.472;2023-04-05T09:45:17;18.33;;;10.57;;
41709;SDS011;59402;48.396;-4.472;2023-04-05T09:47:56;16.80;;;10.48;;
41709;SDS011;59402;48.396;-4.472;2023-04-05T09:50:22;18.45;;;10.40;;
41709;SDS011;59402;48.396;-4.472;2023-04-05T09:52:49;13.77;;;9.27;;
41709;SDS011;59402;48.396;-4.472;2023-04-05T09:55:26;16.60;;;9.85;;
41709;SDS011;59402;48.396;-4.472;2023-04-05T09:57:52;18.02;;;9.77;;
41709;SDS011;59402;48.396;-4.472;2023-04-05T10:00:19;17.50;;;10.00;;
41709;SDS011;59402;48.396;-4.472;2023-04-05T10:02:45;15.70;;;10.00;;
41709;SDS011;59402;48.396;-4.472;2023-04-05T10:05:11;18.60;;;10.10;;
41709;SDS011;59402;48.396;-4.472;2023-04-05T10:10:05;16.08;;;9.75;;
41709;SDS011;59402;48.396;-4.472;2023-04-05T10:12:32;21.05;;;12.43;;
41709;SDS011;59402;48.396;-4.472;2023-04-05T10:14:58;18.63;;;10.30;;
41709;SDS011;59402;48.396;-4.472;2023-04-05T10:17:27;18.15;;;11.20;;
41709;SDS011;59402;48.396;-4.472;2023-04-05T10:25:30;17.45;;;9.68;;
41709;SDS011;59402;48.396;-4.472;2023-04-05T10:30:58;15.20;;;8.95;;
41709;SDS011;59402;48.396;-4.472;2023-04-05T10:33:46;17.02;;;9.25;;
41709;SDS011;59402;48.396;-4.472;2023-04-05T10:36:16;19.35;;;10.10;;
41709;SDS011;59402;48.396;-4.472;2023-04-05T10:41:13;17.80;;;8.65;;
41709;SDS011;59402;48.396;-4.472;2023-04-05T10:43:40;14.55;;;8.73;;
41709;SDS011;59402;48.396;-4.472;2023-04-05T10:46:06;16.95;;;8.65;;
41709;SDS011;59402;48.396;-4.472;2023-04-05T10:48:43;17.15;;;8.65;;
41709;SDS011;59402;48.396;-4.472;2023-04-05T10:51:32;17.40;;;10.27;;
41709;SDS011;59402;48.396;-4.472;2023-04-05T10:53:59;15.25;;;7.93;;
41709;SDS011;59402;48.396;-4.472;2023-04-05T10:56:25;16.40;;;9.13;;
41709;SDS011;59402;48.396;-4.472;2023-04-05T10:58:52;16.25;;;9.93;;
41709;SDS011;59402;48.396;-4.472;2023-04-05T11:01:18;16.17;;;8.38;;
41709;SDS011;59402;48.396;-4.472;2023-04-05T11:03:49;17.42;;;8.18;;
41709;SDS011;59402;48.396;-4.472;2023-04-05T11:08:47;15.38;;;7.65;;
41709;SDS011;59402;48.396;-4.472;2023-04-05T11:11:16;18.05;;;7.25;;
41709;SDS011;59402;48.396;-4.472;2023-04-05T11:16:15;15.50;;;6.50;;
41709;SDS011;59402;48.396;-4.472;2023-04-05T11:18:48;18.67;;;7.10;;
41709;SDS011;59402;48.396;-4.472;2023-04-05T11:21:24;9.10;;;5.78;;
41709;SDS011;59402;48.396;-4.472;2023-04-05T11:24:00;13.23;;;7.05;;
41709;SDS011;59402;48.396;-4.472;2023-04-05T11:26:30;11.35;;;6.15;;
41709;SDS011;59402;48.396;-4.472;2023-04-05T11:29:11;17.02;;;7.35;;
41709;SDS011;59402;48.396;-4.472;2023-04-05T11:31:56;13.15;;;6.53;;
41709;SDS011;59402;48.396;-4.472;2023-04-05T11:34:23;14.32;;;6.05;;
41709;SDS011;59402;48.396;-4.472;2023-04-05T11:36:49;11.85;;;5.70;;
41709;SDS011;59402;48.396;-4.472;2023-04-05T11:44:44;11.45;;;5.85;;
41709;SDS011;59402;48.396;-4.472;2023-04-05T11:47:11;12.63;;;5.63;;
41709;SDS011;59402;48.396;-4.472;2023-04-05T11:49:38;11.00;;;5.90;;
41709;SDS011;59402;48.396;-4.472;2023-04-05T11:52:17;8.93;;;5.93;;
41709;SDS011;59402;48.396;-4.472;2023-04-05T11:54:44;12.80;;;6.70;;
41709;SDS011;59402;48.396;-4.472;2023-04-05T11:57:10;10.15;;;6.10;;
41709;SDS011;59402;48.396;-4.472;2023-04-05T11:59:42;10.65;;;5.95;;
41709;SDS011;59402;48.396;-4.472;2023-04-05T12:02:08;11.95;;;6.25;;
41709;SDS011;59402;48.396;-4.472;2023-04-05T12:04:34;10.32;;;6.10;;
41709;SDS011;59402;48.396;-4.472;2023-04-05T12:07:14;9.05;;;6.57;;
41709;SDS011;59402;48.396;-4.472;2023-04-05T12:10:00;15.00;;;7.88;;
41709;SDS011;59402;48.396;-4.472;2023-04-05T12:15:02;14.73;;;8.13;;
41709;SDS011;59402;48.396;-4.472;2023-04-05T12:17:48;16.85;;;9.30;;
41709;SDS011;59402;48.396;-4.472;2023-04-05T12:20:18;10.50;;;6.60;;
41709;SDS011;59402;48.396;-4.472;2023-04-05T12:22:46;12.25;;;7.07;;
41709;SDS011;59402;48.396;-4.472;2023-04-05T12:25:13;10.63;;;6.87;;
41709;SDS011;59402;48.396;-4.472;2023-04-05T12:27:40;11.23;;;6.83;;
41709;SDS011;59402;48.396;-4.472;2023-04-05T12:32:36;11.10;;;6.05;;
41709;SDS011;59402;48.396;-4.472;2023-04-05T12:35:06;10.75;;;6.40;;
41709;SDS011;59402;48.396;-4.472;2023-04-05T12:37:36;10.55;;;6.53;;
41709;SDS011;59402;48.396;-4.472;2023-04-05T12:40:03;11.70;;;7.30;;
41709;SDS011;59402;48.396;-4.472;2023-04-05T12:42:31;11.25;;;7.15;;
41709;SDS011;59402;48.396;-4.472;2023-04-05T12:45:05;16.15;;;7.85;;
41709;SDS011;59402;48.396;-4.472;2023-04-05T12:47:35;11.00;;;6.85;;
41709;SDS011;59402;48.396;-4.472;2023-04-05T12:50:10;12.13;;;7.32;;
41709;SDS011;59402;48.396;-4.472;2023-04-05T12:52:37;11.23;;;6.00;;
41709;SDS011;59402;48.396;-4.472;2023-04-05T12:55:03;14.85;;;5.47;;
41709;SDS011;59402;48.396;-4.472;2023-04-05T12:57:38;12.88;;;5.88;;
41709;SDS011;59402;48.396;-4.472;2023-04-05T13:00:04;6.97;;;4.68;;
41709;SDS011;59402;48.396;-4.472;2023-04-05T13:02:30;9.02;;;4.57;;
41709;SDS011;59402;48.396;-4.472;2023-04-05T13:04:56;10.05;;;4.90;;
41709;SDS011;59402;48.396;-4.472;2023-04-05T13:07:22;7.55;;;4.63;;
41709;SDS011;59402;48.396;-4.472;2023-04-05T13:09:47;9.48;;;4.20;;
41709;SDS011;59402;48.396;-4.472;2023-04-05T13:12:13;7.05;;;4.05;;
41709;SDS011;59402;48.396;-4.472;2023-04-05T13:14:39;8.85;;;4.20;;
41709;SDS011;59402;48.396;-4.472;2023-04-05T13:17:05;9.48;;;4.57;;
41709;SDS011;59402;48.396;-4.472;2023-04-05T13:19:30;9.75;;;4.65;;
41709;SDS011;59402;48.396;-4.472;2023-04-05T13:21:56;7.80;;;3.65;;
41709;SDS011;59402;48.396;-4.472;2023-04-05T13:24:22;7.20;;;4.13;;
41709;SDS011;59402;48.396;-4.472;2023-04-05T13:26:47;9.93;;;4.65;;
41709;SDS011;59402;48.396;-4.472;2023-04-05T13:29:13;7.53;;;4.07;;
41709;SDS011;59402;48.396;-4.472;2023-04-05T13:31:39;9.05;;;4.63;;
41709;SDS011;59402;48.396;-4.472;2023-04-05T13:34:05;9.07;;;5.30;;
41709;SDS011;59402;48.396;-4.472;2023-04-05T13:36:31;7.97;;;5.30;;
41709;SDS011;59402;48.396;-4.472;2023-04-05T13:38:57;9.70;;;4.85;;
41709;SDS011;59402;48.396;-4.472;2023-04-05T13:41:23;9.95;;;4.90;;
41709;SDS011;59402;48.396;-4.472;2023-04-05T13:43:49;8.55;;;4.80;;
41709;SDS011;59402;48.396;-4.472;2023-04-05T13:46:15;8.25;;;4.28;;
41709;SDS011;59402;48.396;-4.472;2023-04-05T13:48:40;10.35;;;4.85;;
41709;SDS011;59402;48.396;-4.472;2023-04-05T13:51:06;8.25;;;4.18;;
41709;SDS011;59402;48.396;-4.472;2023-04-05T13:53:32;6.38;;;3.58;;
41709;SDS011;59402;48.396;-4.472;2023-04-05T13:55:57;9.65;;;3.90;;
41709;SDS011;59402;48.396;-4.472;2023-04-05T13:58:23;10.35;;;4.28;;
41709;SDS011;59402;48.396;-4.472;2023-04-05T14:00:49;9.00;;;4.10;;
41709;SDS011;59402;48.396;-4.472;2023-04-05T14:03:16;9.05;;;3.65;;
41709;SDS011;59402;48.396;-4.472;2023-04-05T14:05:42;6.85;;;3.75;;
41709;SDS011;59402;48.396;-4.472;2023-04-05T14:08:08;8.05;;;3.53;;
41709;SDS011;59402;48.396;-4.472;2023-04-05T14:10:33;6.18;;;3.53;;
41709;SDS011;59402;48.396;-4.472;2023-04-05T14:12:59;10.57;;;4.03;;
41709;SDS011;59402;48.396;-4.472;2023-04-05T14:15:25;9.85;;;3.50;;
41709;SDS011;59402;48.396;-4.472;2023-04-05T14:17:51;6.40;;;3.60;;
41709;SDS011;59402;48.396;-4.472;2023-04-05T14:20:17;9.85;;;3.35;;
41709;SDS011;59402;48.396;-4.472;2023-04-05T14:22:43;7.03;;;3.33;;
41709;SDS011;59402;48.396;-4.472;2023-04-05T14:25:08;5.88;;;3.08;;
41709;SDS011;59402;48.396;-4.472;2023-04-05T14:27:34;12.52;;;3.75;;
41709;SDS011;59402;48.396;-4.472;2023-04-05T14:30:05;10.30;;;3.20;;
41709;SDS011;59402;48.396;-4.472;2023-04-05T14:32:32;8.43;;;3.27;;
41709;SDS011;59402;48.396;-4.472;2023-04-05T14:34:57;7.30;;;3.47;;
41709;SDS011;59402;48.396;-4.472;2023-04-05T14:37:23;10.50;;;3.30;;
41709;SDS011;59402;48.396;-4.472;2023-04-05T14:39:49;10.30;;;3.47;;
41709;SDS011;59402;48.396;-4.472;2023-04-05T14:42:15;8.93;;;3.15;;
41709;SDS011;59402;48.396;-4.472;2023-04-05T14:44:40;6.38;;;3.55;;
41709;SDS011;59402;48.396;-4.472;2023-04-05T14:47:06;7.18;;;3.42;;
41709;SDS011;59402;48.396;-4.472;2023-04-05T14:49:32;8.63;;;3.63;;
41709;SDS011;59402;48.396;-4.472;2023-04-05T14:51:58;10.73;;;4.30;;
41709;SDS011;59402;48.396;-4.472;2023-04-05T14:54:23;9.55;;;3.53;;
41709;SDS011;59402;48.396;-4.472;2023-04-05T14:56:49;8.20;;;3.67;;
41709;SDS011;59402;48.396;-4.472;2023-04-05T14:59:15;7.80;;;4.07;;
41709;SDS011;59402;48.396;-4.472;2023-04-05T15:01:41;12.48;;;5.15;;
41709;SDS011;59402;48.396;-4.472;2023-04-05T15:04:08;8.60;;;4.15;;
41709;SDS011;59402;48.396;-4.472;2023-04-05T15:06:34;10.18;;;4.80;;
41709;SDS011;59402;48.396;-4.472;2023-04-05T15:09:00;10.95;;;4.10;;
41709;SDS011;59402;48.396;-4.472;2023-04-05T15:11:26;9.73;;;3.80;;
41709;SDS011;59402;48.396;-4.472;2023-04-05T15:13:52;8.52;;;3.60;;
41709;SDS011;59402;48.396;-4.472;2023-04-05T15:16:18;7.50;;;3.45;;
41709;SDS011;59402;48.396;-4.472;2023-04-05T15:18:44;8.75;;;3.38;;
41709;SDS011;59402;48.396;-4.472;2023-04-05T15:21:11;7.95;;;3.40;;